createdAt,value
2022-11-16T00:01:00.498Z,100242.41
2022-11-16T00:03:27.929Z,100252.22
2022-11-16T00:05:59.035Z,100239.22
2022-11-16T00:08:26.488Z,100248.47
2022-11-16T00:10:53.803Z,100242.06
2022-11-16T00:13:21.049Z,100238.56
2022-11-16T00:15:56.878Z,100233.69
2022-11-16T00:18:23.931Z,100226.09
2022-11-16T00:20:51.652Z,100219.66
2022-11-16T00:23:18.904Z,100220.22
2022-11-16T00:25:46.265Z,100222.31
2022-11-16T00:28:13.341Z,100213.69
2022-11-16T00:30:40.825Z,100225.81
2022-11-16T00:33:15.423Z,100226.44
2022-11-16T00:35:42.644Z,100219.47
2022-11-16T00:38:09.583Z,100210.13
2022-11-16T00:40:36.882Z,100206.38
2022-11-16T00:43:04.096Z,100195.50
2022-11-16T00:45:31.393Z,100198.31
2022-11-16T00:48:00.592Z,100213.03
2022-11-16T00:50:29.412Z,100208.94
2022-11-16T00:52:56.367Z,100194.97
2022-11-16T00:55:23.558Z,100191.03
2022-11-16T00:57:50.504Z,100189.78
2022-11-16T01:00:18.711Z,100181.56
2022-11-16T01:02:45.934Z,100188.97
2022-11-16T01:05:13.468Z,100193.13
2022-11-16T01:07:41.849Z,100198.94
2022-11-16T01:10:12.665Z,100197.09
2022-11-16T01:12:40.044Z,100193.31
2022-11-16T01:15:09.129Z,100178.69
2022-11-16T01:17:36.360Z,100195.47
2022-11-16T01:20:06.128Z,100200.88
2022-11-16T01:22:35.367Z,100199.47
2022-11-16T01:25:04.667Z,100196.38
2022-11-16T01:27:31.612Z,100194.94
2022-11-16T01:29:59.127Z,100195.19
2022-11-16T01:32:26.161Z,100187.28
2022-11-16T01:34:53.656Z,100184.38
2022-11-16T01:37:20.600Z,100193.31
2022-11-16T01:39:49.406Z,100193.59
2022-11-16T01:42:19.724Z,100185.41
2022-11-16T01:45:16.060Z,100186.97
2022-11-16T01:47:43.179Z,100180.25
2022-11-16T01:50:14.401Z,100167.56
2022-11-16T01:52:48.030Z,100163.94
2022-11-16T01:55:16.212Z,100160.88
2022-11-16T01:57:46.756Z,100162.94
2022-11-16T02:00:15.571Z,100153.94
2022-11-16T02:02:42.804Z,100148.03
2022-11-16T02:05:12.847Z,100132.28
2022-11-16T02:08:21.544Z,100122.53
2022-11-16T02:11:11.172Z,100113.78
2022-11-16T02:13:51.608Z,100105.53
2022-11-16T02:16:30.479Z,100100.69
2022-11-16T02:19:16.994Z,100098.34
2022-11-16T02:21:51.155Z,100095.16
2022-11-16T02:24:48.068Z,100100.28
2022-11-16T02:27:40.181Z,100102.09
2022-11-16T02:30:09.040Z,100084.94
2022-11-16T02:32:39.675Z,100092.19
2022-11-16T02:35:13.608Z,100086.88
2022-11-16T02:37:46.803Z,100077.09
2022-11-16T02:40:17.588Z,100080.16
2022-11-16T02:42:51.364Z,100078.38
2022-11-16T02:45:24.604Z,100076.66
2022-11-16T02:47:56.941Z,100080.44
2022-11-16T02:50:25.557Z,100079.31
2022-11-16T02:52:52.716Z,100069.25
2022-11-16T02:55:19.725Z,100068.16
2022-11-16T02:57:51.512Z,100067.88
2022-11-16T03:00:25.165Z,100068.84
2022-11-16T03:03:07.287Z,100066.34
2022-11-16T03:05:38.313Z,100065.97
2022-11-16T03:08:14.690Z,100060.94
2022-11-16T03:11:04.109Z,100055.03
2022-11-16T03:13:35.023Z,100060.47
2022-11-16T03:16:08.385Z,100052.25
2022-11-16T03:18:38.906Z,100049.75
2022-11-16T03:21:14.117Z,100059.66
2022-11-16T03:23:41.724Z,100047.41
2022-11-16T03:26:13.191Z,100045.19
2022-11-16T03:28:50.221Z,100040.84
2022-11-16T03:31:25.349Z,100044.78
2022-11-16T03:33:56.138Z,100032.78
2022-11-16T03:36:28.106Z,100024.81
2022-11-16T03:39:00.606Z,100030.97
2022-11-16T03:41:29.800Z,100034.94
2022-11-16T03:43:59.433Z,100044.03
2022-11-16T03:46:27.835Z,100034.72
2022-11-16T03:48:57.377Z,100024.09
2022-11-16T03:51:24.717Z,100027.44
2022-11-16T03:53:51.969Z,100026.44
2022-11-16T03:56:18.823Z,100034.53
2022-11-16T03:58:46.159Z,100028.38
2022-11-16T04:01:13.083Z,100036.47
2022-11-16T04:03:41.943Z,100028.78
2022-11-16T04:06:28.310Z,100018.78
2022-11-16T04:09:14.514Z,100022.97
2022-11-16T04:12:00.107Z,100012.50
2022-11-16T04:14:47.386Z,100007.78
2022-11-16T04:17:35.226Z,100007.38
2022-11-16T04:20:23.047Z,100006.25
2022-11-16T04:23:15.083Z,100003.06
2022-11-16T04:25:44.397Z,100003.91
2022-11-16T04:28:13.964Z,100001.53
2022-11-16T04:31:00.475Z,99993.88
2022-11-16T04:33:54.892Z,100006.28
2022-11-16T04:36:42.579Z,99986.16
2022-11-16T04:39:09.570Z,100003.19
2022-11-16T04:41:55.793Z,99993.56
2022-11-16T04:44:28.830Z,99993.00
2022-11-16T04:47:09.068Z,99990.63
2022-11-16T04:49:35.862Z,99986.13
2022-11-16T04:52:04.674Z,99982.91
2022-11-16T04:54:31.588Z,99991.00
2022-11-16T04:56:58.852Z,99985.97
2022-11-16T04:59:25.736Z,99986.22
2022-11-16T05:02:10.934Z,99976.06
2022-11-16T05:04:39.793Z,99981.13
2022-11-16T05:07:11.012Z,99981.97
2022-11-16T05:09:41.376Z,99971.25
2022-11-16T05:12:09.900Z,99976.69
2022-11-16T05:14:36.983Z,99973.91
2022-11-16T05:17:04.184Z,99947.19
2022-11-16T05:19:49.514Z,99959.44
2022-11-16T05:22:18.193Z,99946.00
2022-11-16T05:24:45.452Z,99941.00
2022-11-16T05:27:15.354Z,99938.81
2022-11-16T05:29:42.627Z,99942.13
2022-11-16T05:32:18.870Z,99946.31
2022-11-16T05:34:46.530Z,99939.75
2022-11-16T05:37:17.058Z,99938.22
2022-11-16T05:39:45.511Z,99940.03
2022-11-16T05:42:12.811Z,99942.63
2022-11-16T05:44:39.821Z,99948.75
2022-11-16T05:47:08.566Z,99948.44
2022-11-16T05:49:35.602Z,99948.44
2022-11-16T05:52:05.261Z,99939.63
2022-11-16T05:54:37.733Z,99942.13
2022-11-16T05:57:06.346Z,99942.59
2022-11-16T05:59:33.359Z,99936.06
2022-11-16T06:02:00.597Z,99938.72
2022-11-16T06:04:27.516Z,99930.19
2022-11-16T06:06:54.751Z,99930.41
2022-11-16T06:09:21.710Z,99922.72
2022-11-16T06:11:48.959Z,99909.56
2022-11-16T06:14:17.444Z,99902.88
2022-11-16T06:16:44.760Z,99909.72
2022-11-16T06:19:11.692Z,99904.88
2022-11-16T06:21:38.990Z,99909.19
2022-11-16T06:24:09.141Z,99900.16
2022-11-16T06:26:37.216Z,99897.66
2022-11-16T06:29:04.513Z,99901.28
2022-11-16T06:31:33.113Z,99904.19
2022-11-16T06:34:00.353Z,99896.59
2022-11-16T06:36:27.454Z,99908.59
2022-11-16T06:38:54.435Z,99901.41
2022-11-16T06:41:22.041Z,99903.28
2022-11-16T06:43:49.017Z,99898.44
2022-11-16T06:46:16.250Z,99894.97
2022-11-16T06:48:44.597Z,99897.78
2022-11-16T06:51:11.737Z,99892.41
2022-11-16T06:53:38.805Z,99911.56
2022-11-16T06:56:06.825Z,99912.25
2022-11-16T06:58:33.959Z,99892.16
2022-11-16T07:01:06.532Z,99893.91
2022-11-16T07:03:33.545Z,99906.56
2022-11-16T07:06:07.166Z,99895.50
2022-11-16T07:08:34.408Z,99893.38
2022-11-16T07:11:05.612Z,99890.72
2022-11-16T07:13:33.416Z,99895.69
2022-11-16T07:16:02.019Z,99885.94
2022-11-16T07:18:29.122Z,99874.78
2022-11-16T07:20:56.289Z,99866.50
2022-11-16T07:23:24.640Z,99866.34
2022-11-16T07:25:51.782Z,99865.81
2022-11-16T07:28:18.723Z,99865.97
2022-11-16T07:30:47.158Z,99866.25
2022-11-16T07:33:14.504Z,99857.31
2022-11-16T07:35:41.649Z,99862.94
2022-11-16T07:38:13.110Z,99864.59
2022-11-16T07:40:45.717Z,99869.81
2022-11-16T07:43:13.610Z,99845.69
2022-11-16T07:45:40.866Z,99863.88
2022-11-16T07:48:08.608Z,99859.28
2022-11-16T07:50:39.387Z,99850.19
2022-11-16T07:53:06.575Z,99851.03
2022-11-16T07:55:33.971Z,99841.22
2022-11-16T07:58:02.730Z,99835.59
2022-11-16T08:00:29.767Z,99840.28
2022-11-16T08:02:57.186Z,99827.00
2022-11-16T08:05:24.961Z,99836.00
2022-11-16T08:07:51.985Z,99831.50
2022-11-16T08:10:19.317Z,99822.75
2022-11-16T08:12:46.170Z,99813.00
2022-11-16T08:15:14.864Z,99822.91
2022-11-16T08:17:41.758Z,99815.47
2022-11-16T08:20:09.776Z,99813.00
2022-11-16T08:22:36.691Z,99813.03
2022-11-16T08:25:05.168Z,99825.84
2022-11-16T08:27:33.069Z,99813.72
2022-11-16T08:30:03.254Z,99812.72
2022-11-16T08:32:31.682Z,99818.56
2022-11-16T08:34:58.801Z,99808.59
2022-11-16T08:37:26.144Z,99798.44
2022-11-16T08:39:53.294Z,99798.63
2022-11-16T08:42:20.237Z,99801.28
2022-11-16T08:44:47.480Z,99799.78
2022-11-16T08:47:14.494Z,99799.28
2022-11-16T08:49:46.660Z,99794.16
2022-11-16T08:52:18.733Z,99792.78
2022-11-16T08:54:47.305Z,99790.78
2022-11-16T08:57:14.269Z,99790.94
2022-11-16T08:59:41.476Z,99790.44
2022-11-16T09:02:09.711Z,99779.94
2022-11-16T09:04:37.556Z,99786.41
2022-11-16T09:07:06.045Z,99776.44
2022-11-16T09:09:33.338Z,99773.09
2022-11-16T09:12:00.298Z,99770.94
2022-11-16T09:14:29.007Z,99775.75
2022-11-16T09:16:56.051Z,99770.72
2022-11-16T09:19:23.182Z,99772.16
2022-11-16T09:21:51.841Z,99771.19
2022-11-16T09:24:22.692Z,99771.63
2022-11-16T09:26:49.632Z,99773.09
2022-11-16T09:29:16.927Z,99769.69
2022-11-16T09:31:43.860Z,99759.44
2022-11-16T09:34:11.336Z,99750.06
2022-11-16T09:36:38.397Z,99753.91
2022-11-16T09:42:06.603Z,99756.09
2022-11-16T09:44:57.894Z,99749.44
2022-11-16T09:47:34.313Z,99739.91
2022-11-16T09:50:04.713Z,99732.81
2022-11-16T09:52:36.975Z,99730.38
2022-11-16T09:55:22.121Z,99729.00
2022-11-16T09:57:53.610Z,99731.22
2022-11-16T10:00:25.379Z,99719.50
2022-11-16T10:03:01.531Z,99720.34
2022-11-16T10:05:34.634Z,99714.63
2022-11-16T10:08:08.866Z,99719.16
2022-11-16T10:10:40.132Z,99688.63
2022-11-16T10:13:24.782Z,99691.97
2022-11-16T10:16:02.393Z,99700.88
2022-11-16T10:18:42.851Z,99692.94
2022-11-16T10:21:25.623Z,99702.78
2022-11-16T10:24:12.859Z,99697.13
2022-11-16T10:26:47.742Z,99693.44
2022-11-16T10:29:33.528Z,99682.81
2022-11-16T10:32:13.533Z,99687.63
2022-11-16T10:34:45.636Z,99684.91
2022-11-16T10:37:14.149Z,99676.81
2022-11-16T10:39:41.323Z,99662.94
2022-11-16T10:42:16.755Z,99673.44
2022-11-16T10:44:49.408Z,99666.34
2022-11-16T10:47:23.108Z,99655.91
2022-11-16T10:49:56.116Z,99658.28
2022-11-16T10:52:23.903Z,99652.88
2022-11-16T10:54:51.157Z,99661.34
2022-11-16T10:57:19.288Z,99655.41
2022-11-16T10:59:49.982Z,99646.25
2022-11-16T11:02:29.061Z,99641.34
2022-11-16T11:05:03.151Z,99639.28
2022-11-16T11:07:32.460Z,99629.28
2022-11-16T11:09:59.565Z,99635.25
2022-11-16T11:12:39.525Z,99630.19
2022-11-16T11:15:26.276Z,99631.88
2022-11-16T11:18:16.178Z,99624.25
2022-11-16T11:20:45.583Z,99621.53
2022-11-16T11:23:16.169Z,99593.88
2022-11-16T11:25:51.649Z,99612.59
2022-11-16T11:28:23.263Z,99613.78
2022-11-16T11:30:58.679Z,99606.47
2022-11-16T11:33:29.793Z,99609.25
2022-11-16T11:36:01.433Z,99609.34
2022-11-16T11:38:29.541Z,99596.66
2022-11-16T11:40:58.753Z,99590.41
2022-11-16T11:43:28.593Z,99575.22
2022-11-16T11:46:05.311Z,99585.00
2022-11-16T11:48:40.439Z,99574.16
2022-11-16T11:51:14.999Z,99564.56
2022-11-16T11:53:49.418Z,99557.94
2022-11-16T11:56:17.660Z,99556.75
2022-11-16T11:58:46.978Z,99561.63
2022-11-16T12:01:44.311Z,99551.47
2022-11-16T12:04:39.189Z,99550.00
2022-11-16T12:07:19.122Z,99544.84
2022-11-16T12:09:52.539Z,99533.50
2022-11-16T12:12:33.574Z,99529.78
2022-11-16T12:15:16.987Z,99538.41
2022-11-16T12:17:56.054Z,99528.94
2022-11-16T12:20:33.219Z,99506.56
2022-11-16T12:23:31.462Z,99520.34
2022-11-16T12:26:06.622Z,99516.47
2022-11-16T12:28:50.864Z,99510.66
2022-11-16T12:31:49.820Z,99516.44
2022-11-16T12:34:27.401Z,99507.16
2022-11-16T12:37:02.927Z,99498.94
2022-11-16T12:39:35.300Z,99504.09
2022-11-16T12:42:29.319Z,99503.66
2022-11-16T12:45:27.611Z,99489.03
2022-11-16T12:48:28.525Z,99484.34
2022-11-16T12:51:02.198Z,99481.91
2022-11-16T12:53:51.408Z,99482.97
2022-11-16T12:56:29.648Z,99482.81
2022-11-16T12:59:18.752Z,99472.91
2022-11-16T13:01:49.369Z,99476.19
2022-11-16T13:04:23.616Z,99470.56
2022-11-16T13:06:56.456Z,99474.28
2022-11-16T13:09:27.912Z,99464.19
2022-11-16T13:11:57.484Z,99463.34
2022-11-16T13:14:29.347Z,99469.91
2022-11-16T13:17:00.750Z,99458.53
2022-11-16T13:19:28.628Z,99457.50
2022-11-16T13:22:03.621Z,99443.44
2022-11-16T13:24:47.282Z,99455.81
2022-11-16T13:27:29.340Z,99453.00
2022-11-16T13:30:03.530Z,99446.03
2022-11-16T13:32:45.056Z,99449.94
2022-11-16T13:35:14.684Z,99444.16
2022-11-16T13:37:47.936Z,99446.84
2022-11-16T13:40:29.473Z,99434.25
2022-11-16T13:43:10.053Z,99443.75
2022-11-16T13:45:41.693Z,99428.47
2022-11-16T13:48:19.634Z,99427.97
2022-11-16T13:50:53.845Z,99436.75
2022-11-16T13:56:17.576Z,99441.16
2022-11-16T13:58:47.212Z,99436.75
2022-11-16T14:01:15.505Z,99439.66
2022-11-16T14:03:43.692Z,99441.25
2022-11-16T14:06:53.071Z,99437.97
2022-11-16T14:09:44.020Z,99432.63
2022-11-16T14:12:50.107Z,99435.69
2022-11-16T14:15:19.004Z,99428.88
2022-11-16T14:17:50.987Z,99427.63
2022-11-16T14:20:43.622Z,99417.94
2022-11-16T14:23:36.711Z,99417.72
2022-11-16T14:26:19.053Z,99422.25
2022-11-16T14:29:16.129Z,99425.94
2022-11-16T14:31:49.959Z,99420.78
2022-11-16T14:34:20.669Z,99411.09
2022-11-16T14:36:49.457Z,99409.03
2022-11-16T14:39:40.051Z,99384.44
2022-11-16T14:42:17.675Z,99414.31
2022-11-16T14:44:45.475Z,99401.69
2022-11-16T14:47:24.096Z,99401.25
2022-11-16T14:49:52.063Z,99403.03
2022-11-16T14:52:27.699Z,99397.03
2022-11-16T14:55:00.147Z,99387.34
2022-11-16T14:57:28.723Z,99395.47
2022-11-16T15:00:09.196Z,99398.34
2022-11-16T15:02:36.718Z,99389.81
2022-11-16T15:05:06.733Z,99390.13
2022-11-16T15:07:33.856Z,99393.00
2022-11-16T15:10:02.235Z,99396.63
2022-11-16T15:12:41.616Z,99393.50
2022-11-16T15:15:14.861Z,99395.47
2022-11-16T15:17:43.972Z,99393.28
2022-11-16T15:20:20.430Z,99393.03
2022-11-16T15:22:52.637Z,99393.81
2022-11-16T15:25:28.717Z,99373.50
2022-11-16T15:27:58.478Z,99382.47
2022-11-16T15:30:27.962Z,99391.31
2022-11-16T15:32:55.672Z,99380.06
2022-11-16T15:35:24.822Z,99388.34
2022-11-16T15:38:06.240Z,99378.41
2022-11-16T15:40:34.911Z,99381.19
2022-11-16T15:43:05.855Z,99384.81
2022-11-16T15:45:34.092Z,99374.13
2022-11-16T15:48:04.050Z,99379.66
2022-11-16T15:50:31.678Z,99377.09
2022-11-16T15:53:00.928Z,99379.59
2022-11-16T15:55:34.569Z,99378.47
2022-11-16T15:58:14.255Z,99367.72
2022-11-16T16:00:42.253Z,99370.41
2022-11-16T16:03:20.633Z,99372.16
2022-11-16T16:05:49.414Z,99377.69
2022-11-16T16:08:31.712Z,99370.59
2022-11-16T16:11:05.657Z,99368.69
2022-11-16T16:13:36.016Z,99363.72
2022-11-16T16:16:29.435Z,99359.72
2022-11-16T16:19:01.593Z,99369.91
2022-11-16T16:21:42.719Z,99355.63
2022-11-16T16:24:12.028Z,99361.91
2022-11-16T16:26:39.220Z,99358.03
2022-11-16T16:29:08.123Z,99363.44
2022-11-16T16:31:35.474Z,99352.00
2022-11-16T16:34:11.504Z,99355.53
2022-11-16T16:36:38.868Z,99347.97
2022-11-16T16:39:05.735Z,99325.34
2022-11-16T16:41:33.022Z,99351.00
2022-11-16T16:43:59.913Z,99331.97
2022-11-16T16:46:30.773Z,99345.84
2022-11-16T16:48:57.636Z,99340.94
2022-11-16T16:51:24.778Z,99342.19
2022-11-16T16:53:51.992Z,99344.47
2022-11-16T16:56:19.956Z,99339.69
2022-11-16T16:58:46.870Z,99340.88
2022-11-16T17:01:14.258Z,99337.03
2022-11-16T17:03:42.682Z,99342.34
2022-11-16T17:06:10.046Z,99335.72
2022-11-16T17:08:38.115Z,99334.66
2022-11-16T17:11:05.496Z,99334.81
2022-11-16T17:13:33.020Z,99332.91
2022-11-16T17:16:04.425Z,99341.25
2022-11-16T17:18:31.265Z,99330.75
2022-11-16T17:21:04.999Z,99333.03
2022-11-16T17:23:32.220Z,99337.22
2022-11-16T17:26:02.521Z,99342.19
2022-11-16T17:28:29.386Z,99326.38
2022-11-16T17:31:00.929Z,99338.13
2022-11-16T17:33:27.936Z,99334.47
2022-11-16T17:35:56.281Z,99329.88
2022-11-16T17:38:24.609Z,99332.53
2022-11-16T17:40:51.796Z,99323.34
2022-11-16T17:43:18.800Z,99328.38
2022-11-16T17:45:45.899Z,99321.72
2022-11-16T17:48:12.891Z,99318.41
2022-11-16T17:50:40.103Z,99315.69
2022-11-16T17:53:07.315Z,99316.88
2022-11-16T17:55:37.664Z,99302.06
2022-11-16T17:58:04.463Z,99302.63
2022-11-16T18:00:31.802Z,99303.84
2022-11-16T18:02:58.984Z,99297.41
2022-11-16T18:05:26.353Z,99299.59
2022-11-16T18:07:53.236Z,99294.56
2022-11-16T18:10:20.316Z,99304.00
2022-11-16T18:12:48.607Z,99295.00
2022-11-16T18:15:27.882Z,99290.56
2022-11-16T18:17:56.701Z,99290.13
2022-11-16T18:20:24.319Z,99283.13
2022-11-16T18:22:51.511Z,99287.69
2022-11-16T18:25:18.600Z,99280.09
2022-11-16T18:27:45.489Z,99280.38
2022-11-16T18:30:15.859Z,99285.44
2022-11-16T18:32:43.006Z,99282.31
2022-11-16T18:35:10.246Z,99276.63
2022-11-16T18:37:37.171Z,99268.50
2022-11-16T18:40:05.246Z,99277.06
2022-11-16T18:42:32.099Z,99275.44
2022-11-16T18:44:59.356Z,99279.28
2022-11-16T18:47:27.672Z,99270.28
2022-11-16T18:49:55.053Z,99271.19
2022-11-16T18:52:21.918Z,99265.41
2022-11-16T18:54:49.381Z,99267.28
2022-11-16T18:57:16.263Z,99264.59
2022-11-16T18:59:43.657Z,99271.59
2022-11-16T19:02:14.175Z,99266.03
2022-11-16T19:04:43.628Z,99261.09
2022-11-16T19:07:10.692Z,99255.41
2022-11-16T19:09:37.948Z,99265.69
2022-11-16T19:12:05.292Z,99266.53
2022-11-16T19:14:32.482Z,99264.88
2022-11-16T19:16:59.452Z,99267.56
2022-11-16T19:19:27.810Z,99268.63
2022-11-16T19:21:57.224Z,99270.47
2022-11-16T19:24:24.976Z,99256.16
2022-11-16T19:26:51.974Z,99265.06
2022-11-16T19:29:19.116Z,99256.06
2022-11-16T19:31:46.065Z,99258.31
2022-11-16T19:34:13.454Z,99259.00
2022-11-16T19:36:40.453Z,99254.69
2022-11-16T19:39:09.295Z,99254.75
2022-11-16T19:41:36.321Z,99245.56
2022-11-16T19:44:03.643Z,99243.06
2022-11-16T19:46:32.243Z,99236.47
2022-11-16T19:49:00.456Z,99245.00
2022-11-16T19:51:29.152Z,99244.38
2022-11-16T19:53:56.242Z,99251.44
2022-11-16T19:56:25.057Z,99242.88
2022-11-16T19:58:52.603Z,99240.31
2022-11-16T20:01:21.861Z,99248.31
2022-11-16T20:03:52.467Z,99228.09
2022-11-16T20:06:24.937Z,99244.63
2022-11-16T20:09:08.459Z,99244.63
2022-11-16T20:11:38.536Z,99228.47
2022-11-16T20:14:07.927Z,99226.44
2022-11-16T20:16:39.653Z,99241.88
2022-11-16T20:19:07.704Z,99232.84
2022-11-16T20:21:37.528Z,99243.78
2022-11-16T20:24:07.376Z,99232.03
2022-11-16T20:26:41.419Z,99238.38
2022-11-16T20:29:10.619Z,99229.09
2022-11-16T20:31:42.649Z,99216.06
2022-11-16T20:34:14.213Z,99223.59
2022-11-16T20:36:42.688Z,99221.38
2022-11-16T20:39:14.655Z,99228.81
2022-11-16T20:41:44.004Z,99226.34
2022-11-16T20:44:16.667Z,99219.84
2022-11-16T20:46:45.202Z,99211.94
2022-11-16T20:49:15.311Z,99205.69
2022-11-16T20:51:42.340Z,99216.81
2022-11-16T20:54:09.572Z,99195.59
2022-11-16T20:56:36.477Z,99211.13
2022-11-16T20:59:05.465Z,99211.03
2022-11-16T21:01:32.408Z,99208.09
2022-11-16T21:04:01.884Z,99209.72
2022-11-16T21:06:29.506Z,99213.88
2022-11-16T21:08:56.843Z,99213.88
2022-11-16T21:11:25.436Z,99197.25
2022-11-16T21:14:11.527Z,99192.38
2022-11-16T21:16:40.254Z,99210.94
2022-11-16T21:19:07.705Z,99199.44
2022-11-16T21:21:34.739Z,99195.69
2022-11-16T21:24:01.987Z,99194.84
2022-11-16T21:26:30.451Z,99192.66
2022-11-16T21:28:58.844Z,99197.97
2022-11-16T21:31:27.824Z,99186.69
2022-11-16T21:33:56.790Z,99187.41
2022-11-16T21:36:26.456Z,99192.09
2022-11-16T21:38:54.205Z,99197.06
2022-11-16T21:41:22.508Z,99180.69
2022-11-16T21:43:49.867Z,99193.25
2022-11-16T21:46:18.462Z,99193.44
2022-11-16T21:48:47.988Z,99191.22
2022-11-16T21:51:18.001Z,99192.34
2022-11-16T21:53:45.858Z,99188.72
2022-11-16T21:56:15.350Z,99181.81
2022-11-16T21:58:45.114Z,99182.19
2022-11-16T22:01:16.503Z,99180.34
2022-11-16T22:03:45.041Z,99179.34
2022-11-16T22:06:32.921Z,99171.28
2022-11-16T22:09:02.037Z,99167.91
2022-11-16T22:11:33.901Z,99178.91
2022-11-16T22:14:04.167Z,99171.56
2022-11-16T22:16:31.047Z,99173.59
2022-11-16T22:19:02.946Z,99164.97
2022-11-16T22:21:30.103Z,99168.06
2022-11-16T22:24:01.890Z,99170.91
2022-11-16T22:26:29.289Z,99156.78
2022-11-16T22:28:56.225Z,99157.41
2022-11-16T22:31:23.610Z,99153.00
2022-11-16T22:33:52.061Z,99149.88
2022-11-16T22:36:19.270Z,99153.41
2022-11-16T22:38:46.125Z,99147.94
2022-11-16T22:41:14.641Z,99150.94
2022-11-16T22:43:41.844Z,99141.16
2022-11-16T22:46:10.743Z,99136.84
2022-11-16T22:48:39.668Z,99140.53
2022-11-16T22:51:20.750Z,99143.38
2022-11-16T22:53:48.148Z,99141.50
2022-11-16T22:56:16.713Z,99144.41
2022-11-16T22:58:43.714Z,99133.56
2022-11-16T23:01:11.020Z,99132.16
2022-11-16T23:03:38.762Z,99127.59
2022-11-16T23:06:06.920Z,99106.88
2022-11-16T23:08:35.362Z,99132.66
2022-11-16T23:11:23.129Z,99130.84
2022-11-16T23:14:12.109Z,99128.78
2022-11-16T23:16:40.297Z,99133.72
2022-11-16T23:19:27.819Z,99127.59
2022-11-16T23:22:14.138Z,99127.78
2022-11-16T23:24:59.928Z,99127.78
2022-11-16T23:27:31.283Z,99116.28
2022-11-16T23:30:01.721Z,99118.94
2022-11-16T23:32:29.194Z,99118.31
2022-11-16T23:34:56.571Z,99116.47
2022-11-16T23:37:23.968Z,99107.03
2022-11-16T23:39:50.941Z,99109.88
2022-11-16T23:42:37.034Z,99101.25
2022-11-16T23:45:06.655Z,99102.63
2022-11-16T23:47:33.809Z,99099.50
2022-11-16T23:50:00.743Z,99099.91
2022-11-16T23:52:30.118Z,99100.72
2022-11-16T23:54:57.011Z,99102.56
2022-11-16T23:57:24.104Z,99096.41
2022-11-16T23:59:51.001Z,99099.50
